sensor_id;sensor_type;location;lat;lon;timestamp;temperature;humidity
41924;DHT22;27613;48.116;11.656;2023-12-20T00:01:47;6.00;75.70
41924;DHT22;27613;48.116;11.656;2023-12-20T00:04:13;5.90;76.20
41924;DHT22;27613;48.116;11.656;2023-12-20T00:06:38;5.90;76.50
41924;DHT22;27613;48.116;11.656;2023-12-20T00:09:04;5.90;77.00
41924;DHT22;27613;48.116;11.656;2023-12-20T00:11:29;5.80;77.20
41924;DHT22;27613;48.116;11.656;2023-12-20T00:13:55;5.80;77.30
41924;DHT22;27613;48.116;11.656;2023-12-20T00:16:20;5.80;77.10
41924;DHT22;27613;48.116;11.656;2023-12-20T00:18:46;5.70;77.50
41924;DHT22;27613;48.116;11.656;2023-12-20T00:21:12;5.70;77.30
41924;DHT22;27613;48.116;11.656;2023-12-20T00:23:37;5.60;77.70
41924;DHT22;27613;48.116;11.656;2023-12-20T00:26:03;5.60;77.60
41924;DHT22;27613;48.116;11.656;2023-12-20T00:28:28;5.60;78.30
41924;DHT22;27613;48.116;11.656;2023-12-20T00:30:54;5.50;78.20
41924;DHT22;27613;48.116;11.656;2023-12-20T00:33:19;5.50;78.80
41924;DHT22;27613;48.116;11.656;2023-12-20T00:35:45;5.50;78.60
41924;DHT22;27613;48.116;11.656;2023-12-20T00:38:10;5.50;79.10
41924;DHT22;27613;48.116;11.656;2023-12-20T00:40:36;5.50;79.20
41924;DHT22;27613;48.116;11.656;2023-12-20T00:43:02;5.50;79.30
41924;DHT22;27613;48.116;11.656;2023-12-20T00:45:28;5.60;78.60
41924;DHT22;27613;48.116;11.656;2023-12-20T00:47:53;5.80;76.30
41924;DHT22;27613;48.116;11.656;2023-12-20T00:50:19;6.00;75.60
41924;DHT22;27613;48.116;11.656;2023-12-20T00:52:44;6.10;74.60
41924;DHT22;27613;48.116;11.656;2023-12-20T00:55:10;6.30;72.80
41924;DHT22;27613;48.116;11.656;2023-12-20T00:57:35;6.50;72.00
41924;DHT22;27613;48.116;11.656;2023-12-20T01:00:01;6.50;71.80
41924;DHT22;27613;48.116;11.656;2023-12-20T01:02:26;6.50;71.90
41924;DHT22;27613;48.116;11.656;2023-12-20T01:04:52;6.50;71.10
41924;DHT22;27613;48.116;11.656;2023-12-20T01:07:17;6.60;71.10
41924;DHT22;27613;48.116;11.656;2023-12-20T01:09:44;6.50;71.60
41924;DHT22;27613;48.116;11.656;2023-12-20T01:12:09;6.50;71.10
41924;DHT22;27613;48.116;11.656;2023-12-20T01:14:35;6.60;71.00
41924;DHT22;27613;48.116;11.656;2023-12-20T01:17:01;6.60;71.00
41924;DHT22;27613;48.116;11.656;2023-12-20T01:19:27;6.60;71.20
41924;DHT22;27613;48.116;11.656;2023-12-20T01:21:53;6.70;71.30
41924;DHT22;27613;48.116;11.656;2023-12-20T01:24:19;6.60;71.30
41924;DHT22;27613;48.116;11.656;2023-12-20T01:26:44;6.60;71.80
41924;DHT22;27613;48.116;11.656;2023-12-20T01:29:10;6.60;71.80
41924;DHT22;27613;48.116;11.656;2023-12-20T01:31:35;6.50;72.60
41924;DHT22;27613;48.116;11.656;2023-12-20T01:34:01;6.50;72.50
41924;DHT22;27613;48.116;11.656;2023-12-20T01:36:26;6.50;72.80
41924;DHT22;27613;48.116;11.656;2023-12-20T01:38:52;6.60;73.10
41924;DHT22;27613;48.116;11.656;2023-12-20T01:41:17;6.50;73.20
41924;DHT22;27613;48.116;11.656;2023-12-20T01:43:43;6.50;73.40
41924;DHT22;27613;48.116;11.656;2023-12-20T01:46:09;6.50;73.70
41924;DHT22;27613;48.116;11.656;2023-12-20T01:48:34;6.50;74.10
41924;DHT22;27613;48.116;11.656;2023-12-20T01:51:02;6.50;74.10
41924;DHT22;27613;48.116;11.656;2023-12-20T01:53:28;6.60;74.20
41924;DHT22;27613;48.116;11.656;2023-12-20T01:55:55;6.50;74.60
41924;DHT22;27613;48.116;11.656;2023-12-20T01:58:22;6.50;75.00
41924;DHT22;27613;48.116;11.656;2023-12-20T02:00:48;6.50;74.70
41924;DHT22;27613;48.116;11.656;2023-12-20T02:03:14;6.50;74.60
41924;DHT22;27613;48.116;11.656;2023-12-20T02:05:40;6.50;74.70
41924;DHT22;27613;48.116;11.656;2023-12-20T02:08:06;6.50;74.30
41924;DHT22;27613;48.116;11.656;2023-12-20T02:10:32;6.50;74.70
41924;DHT22;27613;48.116;11.656;2023-12-20T02:12:58;6.60;74.00
41924;DHT22;27613;48.116;11.656;2023-12-20T02:15:24;6.60;74.10
41924;DHT22;27613;48.116;11.656;2023-12-20T02:17:49;6.70;73.60
41924;DHT22;27613;48.116;11.656;2023-12-20T02:20:15;6.70;74.00
41924;DHT22;27613;48.116;11.656;2023-12-20T02:22:41;6.70;74.10
41924;DHT22;27613;48.116;11.656;2023-12-20T02:25:06;6.60;74.60
41924;DHT22;27613;48.116;11.656;2023-12-20T02:27:32;6.70;74.00
41924;DHT22;27613;48.116;11.656;2023-12-20T02:29:58;6.80;74.00
41924;DHT22;27613;48.116;11.656;2023-12-20T02:32:24;6.90;73.30
41924;DHT22;27613;48.116;11.656;2023-12-20T02:34:53;7.10;72.90
41924;DHT22;27613;48.116;11.656;2023-12-20T02:37:19;7.10;73.20
41924;DHT22;27613;48.116;11.656;2023-12-20T02:39:44;7.00;74.00
41924;DHT22;27613;48.116;11.656;2023-12-20T02:42:10;7.00;73.60
41924;DHT22;27613;48.116;11.656;2023-12-20T02:44:35;7.00;73.80
41924;DHT22;27613;48.116;11.656;2023-12-20T02:47:02;7.00;74.50
41924;DHT22;27613;48.116;11.656;2023-12-20T02:49:27;7.10;74.50
41924;DHT22;27613;48.116;11.656;2023-12-20T02:51:53;7.00;74.80
41924;DHT22;27613;48.116;11.656;2023-12-20T02:54:18;7.10;74.80
41924;DHT22;27613;48.116;11.656;2023-12-20T02:56:44;7.10;75.60
41924;DHT22;27613;48.116;11.656;2023-12-20T02:59:09;7.00;75.00
41924;DHT22;27613;48.116;11.656;2023-12-20T03:01:35;7.00;75.30
41924;DHT22;27613;48.116;11.656;2023-12-20T03:04:01;7.10;75.70
41924;DHT22;27613;48.116;11.656;2023-12-20T03:06:26;7.00;76.20
41924;DHT22;27613;48.116;11.656;2023-12-20T03:08:52;7.00;76.60
41924;DHT22;27613;48.116;11.656;2023-12-20T03:11:18;7.00;76.60
41924;DHT22;27613;48.116;11.656;2023-12-20T03:13:43;7.10;76.70
41924;DHT22;27613;48.116;11.656;2023-12-20T03:16:13;7.10;77.00
41924;DHT22;27613;48.116;11.656;2023-12-20T03:18:38;7.10;77.30
41924;DHT22;27613;48.116;11.656;2023-12-20T03:21:05;7.10;77.80
41924;DHT22;27613;48.116;11.656;2023-12-20T03:23:30;7.10;77.90
41924;DHT22;27613;48.116;11.656;2023-12-20T03:25:58;7.00;78.50
41924;DHT22;27613;48.116;11.656;2023-12-20T03:28:23;7.00;78.60
41924;DHT22;27613;48.116;11.656;2023-12-20T03:30:49;7.10;79.20
41924;DHT22;27613;48.116;11.656;2023-12-20T03:33:15;7.00;79.60
41924;DHT22;27613;48.116;11.656;2023-12-20T03:35:40;7.10;80.20
41924;DHT22;27613;48.116;11.656;2023-12-20T03:38:06;7.00;80.60
41924;DHT22;27613;48.116;11.656;2023-12-20T03:40:32;7.00;80.70
41924;DHT22;27613;48.116;11.656;2023-12-20T03:42:58;7.00;81.10
41924;DHT22;27613;48.116;11.656;2023-12-20T03:45:23;7.10;81.90
41924;DHT22;27613;48.116;11.656;2023-12-20T03:47:49;7.00;82.30
41924;DHT22;27613;48.116;11.656;2023-12-20T03:50:16;7.00;83.30
41924;DHT22;27613;48.116;11.656;2023-12-20T03:52:41;7.00;84.00
41924;DHT22;27613;48.116;11.656;2023-12-20T03:55:07;7.00;84.70
41924;DHT22;27613;48.116;11.656;2023-12-20T03:57:32;7.00;85.50
41924;DHT22;27613;48.116;11.656;2023-12-20T03:59:58;7.00;85.90
41924;DHT22;27613;48.116;11.656;2023-12-20T04:02:23;7.00;86.90
41924;DHT22;27613;48.116;11.656;2023-12-20T04:04:49;7.00;88.60
41924;DHT22;27613;48.116;11.656;2023-12-20T04:07:14;6.90;89.50
41924;DHT22;27613;48.116;11.656;2023-12-20T04:09:41;6.90;90.20
41924;DHT22;27613;48.116;11.656;2023-12-20T04:12:06;6.90;90.90
41924;DHT22;27613;48.116;11.656;2023-12-20T04:14:32;6.80;91.40
41924;DHT22;27613;48.116;11.656;2023-12-20T04:16:58;6.80;91.80
41924;DHT22;27613;48.116;11.656;2023-12-20T04:19:23;6.70;92.40
41924;DHT22;27613;48.116;11.656;2023-12-20T04:21:49;6.70;93.30
41924;DHT22;27613;48.116;11.656;2023-12-20T04:24:15;6.60;94.10
41924;DHT22;27613;48.116;11.656;2023-12-20T04:26:40;6.60;94.90
41924;DHT22;27613;48.116;11.656;2023-12-20T04:29:06;6.60;95.40
41924;DHT22;27613;48.116;11.656;2023-12-20T04:31:31;6.50;95.90
41924;DHT22;27613;48.116;11.656;2023-12-20T04:33:57;6.50;96.30
41924;DHT22;27613;48.116;11.656;2023-12-20T04:36:22;6.40;96.80
41924;DHT22;27613;48.116;11.656;2023-12-20T04:38:49;6.40;97.30
41924;DHT22;27613;48.116;11.656;2023-12-20T04:41:14;6.40;97.90
41924;DHT22;27613;48.116;11.656;2023-12-20T04:43:41;6.40;98.40
41924;DHT22;27613;48.116;11.656;2023-12-20T04:46:07;6.30;98.90
41924;DHT22;27613;48.116;11.656;2023-12-20T04:48:32;6.30;99.50
41924;DHT22;27613;48.116;11.656;2023-12-20T04:50:58;6.30;99.90
41924;DHT22;27613;48.116;11.656;2023-12-20T04:53:23;6.30;99.90
41924;DHT22;27613;48.116;11.656;2023-12-20T04:55:49;6.30;99.90
41924;DHT22;27613;48.116;11.656;2023-12-20T04:58:14;6.30;99.90
41924;DHT22;27613;48.116;11.656;2023-12-20T05:00:39;6.30;99.90
41924;DHT22;27613;48.116;11.656;2023-12-20T05:03:05;6.20;99.90
41924;DHT22;27613;48.116;11.656;2023-12-20T05:05:31;6.20;99.90
41924;DHT22;27613;48.116;11.656;2023-12-20T05:07:57;6.20;99.90
41924;DHT22;27613;48.116;11.656;2023-12-20T05:10:22;6.20;99.90
41924;DHT22;27613;48.116;11.656;2023-12-20T05:12:48;6.10;99.90
41924;DHT22;27613;48.116;11.656;2023-12-20T05:15:13;6.00;99.90
41924;DHT22;27613;48.116;11.656;2023-12-20T05:17:39;5.90;99.90
41924;DHT22;27613;48.116;11.656;2023-12-20T05:20:05;5.80;99.90
41924;DHT22;27613;48.116;11.656;2023-12-20T05:22:31;5.70;99.90
41924;DHT22;27613;48.116;11.656;2023-12-20T05:24:56;5.60;99.90
41924;DHT22;27613;48.116;11.656;2023-12-20T05:27:22;5.60;99.90
41924;DHT22;27613;48.116;11.656;2023-12-20T05:29:47;5.50;99.90
41924;DHT22;27613;48.116;11.656;2023-12-20T05:32:13;5.50;99.90
41924;DHT22;27613;48.116;11.656;2023-12-20T05:34:38;5.50;99.90
41924;DHT22;27613;48.116;11.656;2023-12-20T05:37:04;5.40;99.90
41924;DHT22;27613;48.116;11.656;2023-12-20T05:39:29;5.30;99.90
41924;DHT22;27613;48.116;11.656;2023-12-20T05:41:56;5.20;99.90
41924;DHT22;27613;48.116;11.656;2023-12-20T05:44:21;5.20;99.90
41924;DHT22;27613;48.116;11.656;2023-12-20T05:46:47;5.10;99.90
41924;DHT22;27613;48.116;11.656;2023-12-20T05:49:12;5.10;99.90
41924;DHT22;27613;48.116;11.656;2023-12-20T05:51:39;5.00;99.90
41924;DHT22;27613;48.116;11.656;2023-12-20T05:54:04;5.00;99.90
41924;DHT22;27613;48.116;11.656;2023-12-20T05:56:30;5.00;99.90
41924;DHT22;27613;48.116;11.656;2023-12-20T05:58:55;5.00;99.90
41924;DHT22;27613;48.116;11.656;2023-12-20T06:01:21;5.00;99.90
41924;DHT22;27613;48.116;11.656;2023-12-20T06:03:46;5.00;99.90
41924;DHT22;27613;48.116;11.656;2023-12-20T06:06:12;5.00;99.90
41924;DHT22;27613;48.116;11.656;2023-12-20T06:08:41;4.90;99.90
41924;DHT22;27613;48.116;11.656;2023-12-20T06:11:06;4.80;99.90
41924;DHT22;27613;48.116;11.656;2023-12-20T06:13:32;4.70;99.90
41924;DHT22;27613;48.116;11.656;2023-12-20T06:15:57;4.70;99.90
41924;DHT22;27613;48.116;11.656;2023-12-20T06:18:23;4.60;99.90
41924;DHT22;27613;48.116;11.656;2023-12-20T06:20:49;4.70;99.90
41924;DHT22;27613;48.116;11.656;2023-12-20T06:23:15;4.60;99.90
41924;DHT22;27613;48.116;11.656;2023-12-20T06:25:41;4.60;99.90
41924;DHT22;27613;48.116;11.656;2023-12-20T06:28:06;4.60;99.90
41924;DHT22;27613;48.116;11.656;2023-12-20T06:30:32;4.50;99.90
41924;DHT22;27613;48.116;11.656;2023-12-20T06:32:58;4.50;99.90
41924;DHT22;27613;48.116;11.656;2023-12-20T06:35:24;4.50;99.90
41924;DHT22;27613;48.116;11.656;2023-12-20T06:37:50;4.40;99.90
41924;DHT22;27613;48.116;11.656;2023-12-20T06:40:16;4.40;99.90
41924;DHT22;27613;48.116;11.656;2023-12-20T06:42:42;4.30;99.90
41924;DHT22;27613;48.116;11.656;2023-12-20T06:45:08;4.30;99.90
41924;DHT22;27613;48.116;11.656;2023-12-20T06:47:34;4.20;99.90
41924;DHT22;27613;48.116;11.656;2023-12-20T06:50:00;4.20;99.90
41924;DHT22;27613;48.116;11.656;2023-12-20T06:52:26;4.10;99.90
41924;DHT22;27613;48.116;11.656;2023-12-20T06:54:51;4.10;99.90
41924;DHT22;27613;48.116;11.656;2023-12-20T06:57:17;4.00;99.90
41924;DHT22;27613;48.116;11.656;2023-12-20T06:59:42;4.00;99.90
41924;DHT22;27613;48.116;11.656;2023-12-20T07:02:09;4.00;99.90
41924;DHT22;27613;48.116;11.656;2023-12-20T07:04:39;3.90;99.90
41924;DHT22;27613;48.116;11.656;2023-12-20T07:07:05;4.00;99.90
41924;DHT22;27613;48.116;11.656;2023-12-20T07:09:30;3.90;99.90
41924;DHT22;27613;48.116;11.656;2023-12-20T07:11:56;3.90;99.90
41924;DHT22;27613;48.116;11.656;2023-12-20T07:14:21;3.90;99.90
41924;DHT22;27613;48.116;11.656;2023-12-20T07:16:47;3.90;99.90
41924;DHT22;27613;48.116;11.656;2023-12-20T07:19:12;3.90;99.90
41924;DHT22;27613;48.116;11.656;2023-12-20T07:21:38;3.90;99.90
41924;DHT22;27613;48.116;11.656;2023-12-20T07:24:04;3.90;99.90
41924;DHT22;27613;48.116;11.656;2023-12-20T07:26:29;3.90;99.90
41924;DHT22;27613;48.116;11.656;2023-12-20T07:28:55;3.90;99.90
41924;DHT22;27613;48.116;11.656;2023-12-20T07:31:20;3.90;99.90
41924;DHT22;27613;48.116;11.656;2023-12-20T07:33:46;3.90;99.90
41924;DHT22;27613;48.116;11.656;2023-12-20T07:36:12;3.90;99.90
41924;DHT22;27613;48.116;11.656;2023-12-20T07:38:38;3.90;99.90
41924;DHT22;27613;48.116;11.656;2023-12-20T07:41:03;3.90;99.90
41924;DHT22;27613;48.116;11.656;2023-12-20T07:43:29;3.90;99.90
41924;DHT22;27613;48.116;11.656;2023-12-20T07:45:55;4.00;99.90
41924;DHT22;27613;48.116;11.656;2023-12-20T07:48:20;4.00;99.90
41924;DHT22;27613;48.116;11.656;2023-12-20T07:50:46;4.00;99.90
41924;DHT22;27613;48.116;11.656;2023-12-20T07:53:11;4.00;99.90
41924;DHT22;27613;48.116;11.656;2023-12-20T07:55:37;4.00;99.90
41924;DHT22;27613;48.116;11.656;2023-12-20T07:58:02;4.00;99.90
41924;DHT22;27613;48.116;11.656;2023-12-20T08:00:28;4.00;99.90
41924;DHT22;27613;48.116;11.656;2023-12-20T08:02:54;4.00;99.90
41924;DHT22;27613;48.116;11.656;2023-12-20T08:05:19;4.00;99.90
41924;DHT22;27613;48.116;11.656;2023-12-20T08:07:45;4.00;99.90
41924;DHT22;27613;48.116;11.656;2023-12-20T08:10:10;4.00;99.90
41924;DHT22;27613;48.116;11.656;2023-12-20T08:12:36;4.00;99.90
41924;DHT22;27613;48.116;11.656;2023-12-20T08:15:02;4.10;99.90
41924;DHT22;27613;48.116;11.656;2023-12-20T08:17:29;4.10;99.90
41924;DHT22;27613;48.116;11.656;2023-12-20T08:19:54;4.10;99.90
41924;DHT22;27613;48.116;11.656;2023-12-20T08:22:20;4.10;99.90
41924;DHT22;27613;48.116;11.656;2023-12-20T08:24:45;4.10;99.90
41924;DHT22;27613;48.116;11.656;2023-12-20T08:27:11;4.10;99.90
41924;DHT22;27613;48.116;11.656;2023-12-20T08:29:36;4.20;99.90
41924;DHT22;27613;48.116;11.656;2023-12-20T08:32:02;4.10;99.90
41924;DHT22;27613;48.116;11.656;2023-12-20T08:34:28;4.00;99.90
41924;DHT22;27613;48.116;11.656;2023-12-20T08:36:53;4.00;99.90
41924;DHT22;27613;48.116;11.656;2023-12-20T08:39:19;4.00;99.90
41924;DHT22;27613;48.116;11.656;2023-12-20T08:41:44;4.00;99.90
41924;DHT22;27613;48.116;11.656;2023-12-20T08:44:10;3.90;99.90
41924;DHT22;27613;48.116;11.656;2023-12-20T08:46:36;4.00;99.90
41924;DHT22;27613;48.116;11.656;2023-12-20T08:49:02;3.90;99.90
41924;DHT22;27613;48.116;11.656;2023-12-20T08:51:28;4.00;99.90
41924;DHT22;27613;48.116;11.656;2023-12-20T08:53:53;4.00;99.90
41924;DHT22;27613;48.116;11.656;2023-12-20T08:56:19;4.10;99.90
41924;DHT22;27613;48.116;11.656;2023-12-20T08:58:46;4.10;99.90
41924;DHT22;27613;48.116;11.656;2023-12-20T09:01:12;4.10;99.90
41924;DHT22;27613;48.116;11.656;2023-12-20T09:03:38;4.10;99.90
41924;DHT22;27613;48.116;11.656;2023-12-20T09:06:04;4.10;99.90
41924;DHT22;27613;48.116;11.656;2023-12-20T09:08:30;4.10;99.90
41924;DHT22;27613;48.116;11.656;2023-12-20T09:10:56;4.20;99.90
41924;DHT22;27613;48.116;11.656;2023-12-20T09:13:22;4.20;99.90
41924;DHT22;27613;48.116;11.656;2023-12-20T09:15:52;4.30;99.90
41924;DHT22;27613;48.116;11.656;2023-12-20T09:18:17;4.40;99.90
41924;DHT22;27613;48.116;11.656;2023-12-20T09:20:43;4.50;99.90
41924;DHT22;27613;48.116;11.656;2023-12-20T09:23:08;4.60;99.90
41924;DHT22;27613;48.116;11.656;2023-12-20T09:25:34;4.50;99.90
41924;DHT22;27613;48.116;11.656;2023-12-20T09:27:59;4.50;99.90
41924;DHT22;27613;48.116;11.656;2023-12-20T09:30:25;4.40;99.90
41924;DHT22;27613;48.116;11.656;2023-12-20T09:32:50;4.40;99.90
41924;DHT22;27613;48.116;11.656;2023-12-20T09:35:16;4.40;99.90
41924;DHT22;27613;48.116;11.656;2023-12-20T09:37:41;4.50;99.90
41924;DHT22;27613;48.116;11.656;2023-12-20T09:40:12;4.50;99.90
41924;DHT22;27613;48.116;11.656;2023-12-20T09:45:09;4.40;99.90
41924;DHT22;27613;48.116;11.656;2023-12-20T09:47:37;4.40;99.90
41924;DHT22;27613;48.116;11.656;2023-12-20T09:50:03;4.40;99.90
41924;DHT22;27613;48.116;11.656;2023-12-20T09:52:29;4.40;99.90
41924;DHT22;27613;48.116;11.656;2023-12-20T09:54:55;4.40;99.90
41924;DHT22;27613;48.116;11.656;2023-12-20T09:57:22;4.50;99.90
41924;DHT22;27613;48.116;11.656;2023-12-20T09:59:47;4.50;99.90
41924;DHT22;27613;48.116;11.656;2023-12-20T10:02:13;4.50;99.90
41924;DHT22;27613;48.116;11.656;2023-12-20T10:04:46;4.50;99.90
41924;DHT22;27613;48.116;11.656;2023-12-20T10:07:13;4.50;99.90
41924;DHT22;27613;48.116;11.656;2023-12-20T10:09:38;4.60;99.90
41924;DHT22;27613;48.116;11.656;2023-12-20T10:12:04;4.50;99.90
41924;DHT22;27613;48.116;11.656;2023-12-20T10:14:30;4.60;99.90
41924;DHT22;27613;48.116;11.656;2023-12-20T10:17:02;4.70;99.90
41924;DHT22;27613;48.116;11.656;2023-12-20T10:19:29;4.70;99.90
41924;DHT22;27613;48.116;11.656;2023-12-20T10:21:54;4.90;99.90
41924;DHT22;27613;48.116;11.656;2023-12-20T10:24:20;4.90;99.90
41924;DHT22;27613;48.116;11.656;2023-12-20T10:26:46;5.00;99.90
41924;DHT22;27613;48.116;11.656;2023-12-20T10:29:12;5.00;99.90
41924;DHT22;27613;48.116;11.656;2023-12-20T10:31:37;5.00;99.90
41924;DHT22;27613;48.116;11.656;2023-12-20T10:34:05;5.00;99.90
41924;DHT22;27613;48.116;11.656;2023-12-20T10:36:33;5.10;99.90
41924;DHT22;27613;48.116;11.656;2023-12-20T10:38:59;5.00;99.90
41924;DHT22;27613;48.116;11.656;2023-12-20T10:41:27;5.10;99.90
41924;DHT22;27613;48.116;11.656;2023-12-20T10:44:02;5.10;99.90
41924;DHT22;27613;48.116;11.656;2023-12-20T10:46:29;5.00;99.90
41924;DHT22;27613;48.116;11.656;2023-12-20T10:48:56;5.00;99.90
41924;DHT22;27613;48.116;11.656;2023-12-20T10:51:22;5.00;99.90
41924;DHT22;27613;48.116;11.656;2023-12-20T10:53:50;5.00;99.90
41924;DHT22;27613;48.116;11.656;2023-12-20T10:56:17;5.10;99.90
41924;DHT22;27613;48.116;11.656;2023-12-20T10:58:47;5.10;99.90
41924;DHT22;27613;48.116;11.656;2023-12-20T11:01:14;5.20;99.90
41924;DHT22;27613;48.116;11.656;2023-12-20T11:03:50;5.30;99.90
41924;DHT22;27613;48.116;11.656;2023-12-20T11:06:23;5.30;99.90
41924;DHT22;27613;48.116;11.656;2023-12-20T11:09:17;5.80;99.90
41924;DHT22;27613;48.116;11.656;2023-12-20T11:17:09;5.10;99.90
41924;DHT22;27613;48.116;11.656;2023-12-20T11:22:21;5.10;99.90
41924;DHT22;27613;48.116;11.656;2023-12-20T11:24:48;5.00;99.90
41924;DHT22;27613;48.116;11.656;2023-12-20T11:27:14;5.10;99.90
41924;DHT22;27613;48.116;11.656;2023-12-20T11:29:40;5.00;99.90
41924;DHT22;27613;48.116;11.656;2023-12-20T11:37:35;5.10;99.90
41924;DHT22;27613;48.116;11.656;2023-12-20T11:40:03;5.10;99.90
41924;DHT22;27613;48.116;11.656;2023-12-20T11:42:33;5.10;99.90
41924;DHT22;27613;48.116;11.656;2023-12-20T11:45:01;5.20;99.90
41924;DHT22;27613;48.116;11.656;2023-12-20T11:47:29;5.40;99.90
41924;DHT22;27613;48.116;11.656;2023-12-20T11:49:55;5.30;99.90
41924;DHT22;27613;48.116;11.656;2023-12-20T11:52:21;5.20;99.90
41924;DHT22;27613;48.116;11.656;2023-12-20T11:54:47;5.30;99.90
41924;DHT22;27613;48.116;11.656;2023-12-20T11:57:13;5.40;99.90
41924;DHT22;27613;48.116;11.656;2023-12-20T11:59:39;5.40;99.90
41924;DHT22;27613;48.116;11.656;2023-12-20T12:02:05;5.60;99.90
41924;DHT22;27613;48.116;11.656;2023-12-20T12:04:30;5.80;99.90
41924;DHT22;27613;48.116;11.656;2023-12-20T12:06:56;5.80;99.90
41924;DHT22;27613;48.116;11.656;2023-12-20T12:09:21;5.80;99.90
41924;DHT22;27613;48.116;11.656;2023-12-20T12:11:47;5.70;99.90
41924;DHT22;27613;48.116;11.656;2023-12-20T12:14:13;5.60;99.90
41924;DHT22;27613;48.116;11.656;2023-12-20T12:16:38;5.60;99.90
41924;DHT22;27613;48.116;11.656;2023-12-20T12:19:04;5.50;99.90
41924;DHT22;27613;48.116;11.656;2023-12-20T12:21:29;5.40;99.90
41924;DHT22;27613;48.116;11.656;2023-12-20T12:24:06;5.50;99.90
41924;DHT22;27613;48.116;11.656;2023-12-20T12:26:32;5.40;99.90
41924;DHT22;27613;48.116;11.656;2023-12-20T12:28:57;5.50;99.90
41924;DHT22;27613;48.116;11.656;2023-12-20T12:31:23;5.50;99.90
41924;DHT22;27613;48.116;11.656;2023-12-20T12:33:51;5.50;99.90
41924;DHT22;27613;48.116;11.656;2023-12-20T12:36:16;5.40;99.90
41924;DHT22;27613;48.116;11.656;2023-12-20T12:38:43;5.40;99.90
41924;DHT22;27613;48.116;11.656;2023-12-20T12:41:08;5.40;99.90
41924;DHT22;27613;48.116;11.656;2023-12-20T12:43:35;5.40;99.90
41924;DHT22;27613;48.116;11.656;2023-12-20T12:46:01;5.40;99.90
41924;DHT22;27613;48.116;11.656;2023-12-20T12:48:26;5.40;99.90
41924;DHT22;27613;48.116;11.656;2023-12-20T12:50:53;5.40;99.90
41924;DHT22;27613;48.116;11.656;2023-12-20T12:53:22;5.30;99.90
41924;DHT22;27613;48.116;11.656;2023-12-20T12:55:48;5.30;99.90
41924;DHT22;27613;48.116;11.656;2023-12-20T12:58:14;5.30;99.90
41924;DHT22;27613;48.116;11.656;2023-12-20T13:00:39;5.30;99.90
41924;DHT22;27613;48.116;11.656;2023-12-20T13:03:05;5.30;99.90
41924;DHT22;27613;48.116;11.656;2023-12-20T13:05:30;5.20;99.90
41924;DHT22;27613;48.116;11.656;2023-12-20T13:07:57;5.20;99.90
41924;DHT22;27613;48.116;11.656;2023-12-20T13:10:22;5.20;99.90
41924;DHT22;27613;48.116;11.656;2023-12-20T13:12:48;5.20;99.90
41924;DHT22;27613;48.116;11.656;2023-12-20T13:15:13;5.20;99.90
41924;DHT22;27613;48.116;11.656;2023-12-20T13:17:39;5.20;99.90
41924;DHT22;27613;48.116;11.656;2023-12-20T13:20:05;5.20;99.90
41924;DHT22;27613;48.116;11.656;2023-12-20T13:22:32;5.10;99.90
41924;DHT22;27613;48.116;11.656;2023-12-20T13:24:57;5.00;99.90
41924;DHT22;27613;48.116;11.656;2023-12-20T13:27:23;4.70;99.90
41924;DHT22;27613;48.116;11.656;2023-12-20T13:29:49;4.60;99.90
41924;DHT22;27613;48.116;11.656;2023-12-20T13:32:14;4.50;99.90
41924;DHT22;27613;48.116;11.656;2023-12-20T13:34:40;4.40;99.90
41924;DHT22;27613;48.116;11.656;2023-12-20T13:37:05;4.40;99.90
41924;DHT22;27613;48.116;11.656;2023-12-20T13:39:31;4.30;99.90
41924;DHT22;27613;48.116;11.656;2023-12-20T13:41:57;4.30;99.90
41924;DHT22;27613;48.116;11.656;2023-12-20T13:44:23;4.30;99.90
41924;DHT22;27613;48.116;11.656;2023-12-20T13:46:48;4.30;99.90
41924;DHT22;27613;48.116;11.656;2023-12-20T13:49:15;4.30;99.90
41924;DHT22;27613;48.116;11.656;2023-12-20T13:51:41;4.30;99.90
41924;DHT22;27613;48.116;11.656;2023-12-20T13:54:06;4.30;99.90
41924;DHT22;27613;48.116;11.656;2023-12-20T13:56:32;4.30;99.90
41924;DHT22;27613;48.116;11.656;2023-12-20T13:58:58;4.30;99.90
41924;DHT22;27613;48.116;11.656;2023-12-20T14:01:25;4.30;99.90
41924;DHT22;27613;48.116;11.656;2023-12-20T14:03:51;4.40;99.90
41924;DHT22;27613;48.116;11.656;2023-12-20T14:06:17;4.40;99.90
41924;DHT22;27613;48.116;11.656;2023-12-20T14:08:43;4.30;99.90
41924;DHT22;27613;48.116;11.656;2023-12-20T14:11:09;4.30;99.90
41924;DHT22;27613;48.116;11.656;2023-12-20T14:13:34;4.30;99.90
41924;DHT22;27613;48.116;11.656;2023-12-20T14:16:00;4.40;99.90
41924;DHT22;27613;48.116;11.656;2023-12-20T14:18:27;4.40;99.90
41924;DHT22;27613;48.116;11.656;2023-12-20T14:20:53;4.40;99.90
41924;DHT22;27613;48.116;11.656;2023-12-20T14:23:19;4.60;99.90
41924;DHT22;27613;48.116;11.656;2023-12-20T14:25:44;4.70;99.90
41924;DHT22;27613;48.116;11.656;2023-12-20T14:28:10;4.70;99.90
41924;DHT22;27613;48.116;11.656;2023-12-20T14:30:37;4.70;99.90
41924;DHT22;27613;48.116;11.656;2023-12-20T14:33:04;4.70;99.90
41924;DHT22;27613;48.116;11.656;2023-12-20T14:35:29;4.60;99.90
41924;DHT22;27613;48.116;11.656;2023-12-20T14:37:55;4.50;99.90
41924;DHT22;27613;48.116;11.656;2023-12-20T14:40:20;4.50;99.90
41924;DHT22;27613;48.116;11.656;2023-12-20T14:42:46;4.40;99.90
41924;DHT22;27613;48.116;11.656;2023-12-20T14:45:12;4.40;99.90
41924;DHT22;27613;48.116;11.656;2023-12-20T14:47:41;4.40;99.90
41924;DHT22;27613;48.116;11.656;2023-12-20T14:50:07;4.40;99.90
41924;DHT22;27613;48.116;11.656;2023-12-20T14:52:33;4.40;99.90
41924;DHT22;27613;48.116;11.656;2023-12-20T14:55:00;4.40;99.90
41924;DHT22;27613;48.116;11.656;2023-12-20T14:57:25;4.40;99.90
41924;DHT22;27613;48.116;11.656;2023-12-20T14:59:51;4.30;99.90
41924;DHT22;27613;48.116;11.656;2023-12-20T15:02:17;4.30;99.90
41924;DHT22;27613;48.116;11.656;2023-12-20T15:04:43;4.30;99.90
41924;DHT22;27613;48.116;11.656;2023-12-20T15:07:08;4.30;99.90
41924;DHT22;27613;48.116;11.656;2023-12-20T15:09:34;4.30;99.90
41924;DHT22;27613;48.116;11.656;2023-12-20T15:11:59;4.30;99.90
41924;DHT22;27613;48.116;11.656;2023-12-20T15:14:25;4.30;99.90
41924;DHT22;27613;48.116;11.656;2023-12-20T15:16:52;4.20;99.90
41924;DHT22;27613;48.116;11.656;2023-12-20T15:19:17;4.20;99.90
41924;DHT22;27613;48.116;11.656;2023-12-20T15:21:43;4.20;99.90
41924;DHT22;27613;48.116;11.656;2023-12-20T15:24:09;4.10;99.90
41924;DHT22;27613;48.116;11.656;2023-12-20T15:26:42;4.20;99.90
41924;DHT22;27613;48.116;11.656;2023-12-20T15:29:08;4.20;99.90
41924;DHT22;27613;48.116;11.656;2023-12-20T15:31:36;4.20;99.90
41924;DHT22;27613;48.116;11.656;2023-12-20T15:34:02;4.20;99.90
41924;DHT22;27613;48.116;11.656;2023-12-20T15:36:28;4.20;99.90
41924;DHT22;27613;48.116;11.656;2023-12-20T15:38:53;4.20;99.90